sensor_id;sensor_type;location;lat;lon;timestamp;pressure;altitude;pressure_sealevel;temperature;humidity
37694;BME280;23531;50.122;8.644;2023-04-07T02:03:51;100477.63;;;9.19;nan
37694;BME280;23531;50.122;8.644;2023-04-07T02:05:53;100471.25;;;9.27;nan
37694;BME280;23531;50.122;8.644;2023-04-07T02:07:57;100469.84;;;9.37;nan
37694;BME280;23531;50.122;8.644;2023-04-07T02:10:00;100471.34;;;9.46;nan
37694;BME280;23531;50.122;8.644;2023-04-07T02:12:02;100471.72;;;9.43;nan
37694;BME280;23531;50.122;8.644;2023-04-07T02:14:04;100455.00;;;9.41;nan
37694;BME280;23531;50.122;8.644;2023-04-07T02:16:07;100469.19;;;9.29;nan
37694;BME280;23531;50.122;8.644;2023-04-07T02:18:09;100465.69;;;9.28;nan
37694;BME280;23531;50.122;8.644;2023-04-07T02:20:15;100458.84;;;9.19;nan
37694;BME280;23531;50.122;8.644;2023-04-07T02:22:18;100465.59;;;9.02;nan
37694;BME280;23531;50.122;8.644;2023-04-07T02:24:20;100462.84;;;8.95;nan
37694;BME280;23531;50.122;8.644;2023-04-07T02:26:21;100453.16;;;8.94;nan
37694;BME280;23531;50.122;8.644;2023-04-07T02:28:22;100455.81;;;8.94;nan
37694;BME280;23531;50.122;8.644;2023-04-07T02:30:24;100449.41;;;8.89;nan
37694;BME280;23531;50.122;8.644;2023-04-07T02:32:25;100454.38;;;8.92;nan
37694;BME280;23531;50.122;8.644;2023-04-07T02:34:27;100448.03;;;8.99;nan
37694;BME280;23531;50.122;8.644;2023-04-07T02:36:29;100459.31;;;8.88;nan
37694;BME280;23531;50.122;8.644;2023-04-07T02:38:31;100450.25;;;8.89;nan
37694;BME280;23531;50.122;8.644;2023-04-07T02:40:32;100452.09;;;8.89;nan
37694;BME280;23531;50.122;8.644;2023-04-07T02:42:35;100452.31;;;8.94;nan
37694;BME280;23531;50.122;8.644;2023-04-07T02:44:36;100459.94;;;8.90;nan
37694;BME280;23531;50.122;8.644;2023-04-07T02:46:38;100454.97;;;8.87;nan
37694;BME280;23531;50.122;8.644;2023-04-07T02:48:40;100455.19;;;8.92;nan
37694;BME280;23531;50.122;8.644;2023-04-07T02:50:41;100452.78;;;9.04;nan
37694;BME280;23531;50.122;8.644;2023-04-07T02:52:44;100452.94;;;8.96;nan
37694;BME280;23531;50.122;8.644;2023-04-07T02:54:45;100453.16;;;8.94;nan
37694;BME280;23531;50.122;8.644;2023-04-07T02:56:46;100443.44;;;8.93;nan
37694;BME280;23531;50.122;8.644;2023-04-07T02:58:47;100449.69;;;9.00;nan
37694;BME280;23531;50.122;8.644;2023-04-07T03:00:49;100452.44;;;9.14;nan
37694;BME280;23531;50.122;8.644;2023-04-07T03:02:50;100444.16;;;9.08;nan
37694;BME280;23531;50.122;8.644;2023-04-07T03:04:51;100443.69;;;8.98;nan
37694;BME280;23531;50.122;8.644;2023-04-07T03:06:53;100439.53;;;8.89;nan
37694;BME280;23531;50.122;8.644;2023-04-07T03:08:56;100449.06;;;8.98;nan
37694;BME280;23531;50.122;8.644;2023-04-07T03:10:58;100440.81;;;9.06;nan
37694;BME280;23531;50.122;8.644;2023-04-07T03:12:59;100437.38;;;9.13;nan
37694;BME280;23531;50.122;8.644;2023-04-07T03:15:00;100439.41;;;9.10;nan
37694;BME280;23531;50.122;8.644;2023-04-07T03:17:02;100432.19;;;9.11;nan
37694;BME280;23531;50.122;8.644;2023-04-07T03:19:03;100439.22;;;9.19;nan
37694;BME280;23531;50.122;8.644;2023-04-07T03:21:04;100435.09;;;9.16;nan
37694;BME280;23531;50.122;8.644;2023-04-07T03:23:05;100431.38;;;9.10;nan
37694;BME280;23531;50.122;8.644;2023-04-07T03:25:08;100435.50;;;9.13;nan
37694;BME280;23531;50.122;8.644;2023-04-07T03:27:10;100435.41;;;8.93;nan
37694;BME280;23531;50.122;8.644;2023-04-07T03:29:11;100429.16;;;8.80;nan
37694;BME280;23531;50.122;8.644;2023-04-07T03:31:12;100425.47;;;8.87;nan
37694;BME280;23531;50.122;8.644;2023-04-07T03:33:13;100420.28;;;8.79;nan
37694;BME280;23531;50.122;8.644;2023-04-07T03:35:15;100423.38;;;8.83;nan
37694;BME280;23531;50.122;8.644;2023-04-07T03:37:16;100423.16;;;8.78;nan
37694;BME280;23531;50.122;8.644;2023-04-07T03:39:17;100423.84;;;8.93;nan
37694;BME280;23531;50.122;8.644;2023-04-07T03:41:20;100431.69;;;8.94;nan
37694;BME280;23531;50.122;8.644;2023-04-07T03:43:21;100423.44;;;8.89;nan
37694;BME280;23531;50.122;8.644;2023-04-07T03:45:22;100420.97;;;8.94;nan
37694;BME280;23531;50.122;8.644;2023-04-07T03:47:24;100417.19;;;8.82;nan
37694;BME280;23531;50.122;8.644;2023-04-07T03:49:25;100421.34;;;8.85;nan
37694;BME280;23531;50.122;8.644;2023-04-07T03:51:26;100416.78;;;8.79;nan
37694;BME280;23531;50.122;8.644;2023-04-07T03:53:27;100416.81;;;8.85;nan
37694;BME280;23531;50.122;8.644;2023-04-07T03:55:29;100414.38;;;8.97;nan
37694;BME280;23531;50.122;8.644;2023-04-07T03:57:31;100419.81;;;9.17;nan
37694;BME280;23531;50.122;8.644;2023-04-07T03:59:32;100416.75;;;9.26;nan
37694;BME280;23531;50.122;8.644;2023-04-07T04:01:34;100414.28;;;9.25;nan
37694;BME280;23531;50.122;8.644;2023-04-07T04:03:36;100427.22;;;9.15;nan
37694;BME280;23531;50.122;8.644;2023-04-07T04:05:37;100423.50;;;9.02;nan
37694;BME280;23531;50.122;8.644;2023-04-07T04:07:39;100423.69;;;9.01;nan
37694;BME280;23531;50.122;8.644;2023-04-07T04:09:40;100418.97;;;9.09;nan
37694;BME280;23531;50.122;8.644;2023-04-07T04:11:41;100415.06;;;9.12;nan
37694;BME280;23531;50.122;8.644;2023-04-07T04:13:44;100423.28;;;9.04;nan
37694;BME280;23531;50.122;8.644;2023-04-07T04:15:45;100415.59;;;8.94;nan
37694;BME280;23531;50.122;8.644;2023-04-07T04:17:47;100414.38;;;8.90;nan
37694;BME280;23531;50.122;8.644;2023-04-07T04:19:48;100413.94;;;8.87;nan
37694;BME280;23531;50.122;8.644;2023-04-07T04:21:50;100407.75;;;8.86;nan
37694;BME280;23531;50.122;8.644;2023-04-07T04:23:51;100419.94;;;8.89;nan
37694;BME280;23531;50.122;8.644;2023-04-07T04:25:52;100417.66;;;8.92;nan
37694;BME280;23531;50.122;8.644;2023-04-07T04:27:54;100419.69;;;8.84;nan
37694;BME280;23531;50.122;8.644;2023-04-07T04:29:56;100420.28;;;8.79;nan
37694;BME280;23531;50.122;8.644;2023-04-07T04:31:57;100424.41;;;8.82;nan
37694;BME280;23531;50.122;8.644;2023-04-07T04:33:59;100418.84;;;8.83;nan
37694;BME280;23531;50.122;8.644;2023-04-07T04:36:00;100428.00;;;8.95;nan
37694;BME280;23531;50.122;8.644;2023-04-07T04:38:01;100422.63;;;8.95;nan
37694;BME280;23531;50.122;8.644;2023-04-07T04:40:04;100416.81;;;8.92;nan
37694;BME280;23531;50.122;8.644;2023-04-07T04:42:07;100425.50;;;8.94;nan
37694;BME280;23531;50.122;8.644;2023-04-07T04:44:09;100422.81;;;8.94;nan
37694;BME280;23531;50.122;8.644;2023-04-07T04:46:12;100412.47;;;8.84;nan
37694;BME280;23531;50.122;8.644;2023-04-07T04:48:14;100420.31;;;8.86;nan
37694;BME280;23531;50.122;8.644;2023-04-07T04:50:16;100419.28;;;8.80;nan
37694;BME280;23531;50.122;8.644;2023-04-07T04:52:17;100422.72;;;8.74;nan
37694;BME280;23531;50.122;8.644;2023-04-07T04:54:18;100423.13;;;8.71;nan
37694;BME280;23531;50.122;8.644;2023-04-07T04:56:20;100422.97;;;8.79;nan
37694;BME280;23531;50.122;8.644;2023-04-07T04:58:21;100427.50;;;8.79;nan
37694;BME280;23531;50.122;8.644;2023-04-07T05:00:22;100421.53;;;8.83;nan
37694;BME280;23531;50.122;8.644;2023-04-07T05:02:25;100427.13;;;8.88;nan
37694;BME280;23531;50.122;8.644;2023-04-07T05:04:26;100428.34;;;8.86;nan
37694;BME280;23531;50.122;8.644;2023-04-07T05:06:27;100426.94;;;8.90;nan
37694;BME280;23531;50.122;8.644;2023-04-07T05:08:29;100432.91;;;8.92;nan
37694;BME280;23531;50.122;8.644;2023-04-07T05:10:30;100428.38;;;8.92;nan
37694;BME280;23531;50.122;8.644;2023-04-07T05:12:31;100432.50;;;8.88;nan
37694;BME280;23531;50.122;8.644;2023-04-07T05:14:33;100430.03;;;8.93;nan
37694;BME280;23531;50.122;8.644;2023-04-07T05:16:34;100435.00;;;8.96;nan
37694;BME280;23531;50.122;8.644;2023-04-07T05:18:36;100432.16;;;9.04;nan
37694;BME280;23531;50.122;8.644;2023-04-07T05:20:38;100430.28;;;9.05;nan
37694;BME280;23531;50.122;8.644;2023-04-07T05:22:39;100429.91;;;9.15;nan
37694;BME280;23531;50.122;8.644;2023-04-07T05:24:40;100437.13;;;9.07;nan
37694;BME280;23531;50.122;8.644;2023-04-07T05:26:42;100429.91;;;9.08;nan
37694;BME280;23531;50.122;8.644;2023-04-07T05:28:43;100436.88;;;8.96;nan
37694;BME280;23531;50.122;8.644;2023-04-07T05:30:44;100433.13;;;8.90;nan
37694;BME280;23531;50.122;8.644;2023-04-07T05:32:45;100429.66;;;8.96;nan
37694;BME280;23531;50.122;8.644;2023-04-07T05:34:48;100429.00;;;8.94;nan
37694;BME280;23531;50.122;8.644;2023-04-07T05:36:49;100426.97;;;8.96;nan
37694;BME280;23531;50.122;8.644;2023-04-07T05:38:50;100420.56;;;8.97;nan
37694;BME280;23531;50.122;8.644;2023-04-07T05:40:52;100425.09;;;8.90;nan
37694;BME280;23531;50.122;8.644;2023-04-07T05:42:53;100423.44;;;8.96;nan
37694;BME280;23531;50.122;8.644;2023-04-07T05:44:55;100424.25;;;8.90;nan
37694;BME280;23531;50.122;8.644;2023-04-07T05:46:56;100422.75;;;8.81;nan
37694;BME280;23531;50.122;8.644;2023-04-07T05:48:57;100428.94;;;8.81;nan
37694;BME280;23531;50.122;8.644;2023-04-07T05:51:00;100429.09;;;8.73;nan
37694;BME280;23531;50.122;8.644;2023-04-07T05:53:01;100428.94;;;8.81;nan
37694;BME280;23531;50.122;8.644;2023-04-07T05:55:03;100435.94;;;8.76;nan
37694;BME280;23531;50.122;8.644;2023-04-07T05:57:05;100430.22;;;8.85;nan
37694;BME280;23531;50.122;8.644;2023-04-07T05:59:06;100426.50;;;8.86;nan
37694;BME280;23531;50.122;8.644;2023-04-07T06:01:08;100431.22;;;8.78;nan
37694;BME280;23531;50.122;8.644;2023-04-07T06:03:09;100434.25;;;8.68;nan
37694;BME280;23531;50.122;8.644;2023-04-07T06:05:10;100433.66;;;8.72;nan
37694;BME280;23531;50.122;8.644;2023-04-07T06:07:13;100434.53;;;8.80;nan
37694;BME280;23531;50.122;8.644;2023-04-07T06:09:14;100430.59;;;8.82;nan
37694;BME280;23531;50.122;8.644;2023-04-07T06:11:15;100437.44;;;8.85;nan
37694;BME280;23531;50.122;8.644;2023-04-07T06:13:16;100437.59;;;8.77;nan
37694;BME280;23531;50.122;8.644;2023-04-07T06:15:18;100442.19;;;8.89;nan
37694;BME280;23531;50.122;8.644;2023-04-07T06:17:19;100431.44;;;8.83;nan
37694;BME280;23531;50.122;8.644;2023-04-07T06:19:20;100426.88;;;8.77;nan
37694;BME280;23531;50.122;8.644;2023-04-07T06:21:21;100434.25;;;8.68;nan
37694;BME280;23531;50.122;8.644;2023-04-07T06:23:24;100433.69;;;8.79;nan
37694;BME280;23531;50.122;8.644;2023-04-07T06:25:25;100436.59;;;8.84;nan
37694;BME280;23531;50.122;8.644;2023-04-07T06:27:26;100436.16;;;8.81;nan
37694;BME280;23531;50.122;8.644;2023-04-07T06:29:28;100430.78;;;8.81;nan
37694;BME280;23531;50.122;8.644;2023-04-07T06:31:29;100433.69;;;8.79;nan
37694;BME280;23531;50.122;8.644;2023-04-07T06:33:30;100434.28;;;8.74;nan
37694;BME280;23531;50.122;8.644;2023-04-07T06:35:31;100438.63;;;8.76;nan
37694;BME280;23531;50.122;8.644;2023-04-07T06:37:33;100437.78;;;8.75;nan
37694;BME280;23531;50.122;8.644;2023-04-07T06:39:35;100442.13;;;8.76;nan
37694;BME280;23531;50.122;8.644;2023-04-07T06:41:37;100432.22;;;8.77;nan
37694;BME280;23531;50.122;8.644;2023-04-07T06:43:38;100436.78;;;8.83;nan
37694;BME280;23531;50.122;8.644;2023-04-07T06:45:40;100439.91;;;8.86;nan
37694;BME280;23531;50.122;8.644;2023-04-07T06:47:41;100433.28;;;8.82;nan
37694;BME280;23531;50.122;8.644;2023-04-07T06:49:42;100440.03;;;8.71;nan
37694;BME280;23531;50.122;8.644;2023-04-07T06:51:43;100437.75;;;8.68;nan
37694;BME280;23531;50.122;8.644;2023-04-07T06:53:45;100445.84;;;8.82;nan
37694;BME280;23531;50.122;8.644;2023-04-07T06:55:48;100448.25;;;8.70;nan
37694;BME280;23531;50.122;8.644;2023-04-07T06:57:50;100444.81;;;8.76;nan
37694;BME280;23531;50.122;8.644;2023-04-07T06:59:51;100447.50;;;8.76;nan
37694;BME280;23531;50.122;8.644;2023-04-07T07:01:52;100447.97;;;8.86;nan
37694;BME280;23531;50.122;8.644;2023-04-07T07:03:54;100441.75;;;8.86;nan
37694;BME280;23531;50.122;8.644;2023-04-07T07:05:55;100441.41;;;8.95;nan
37694;BME280;23531;50.122;8.644;2023-04-07T07:07:56;100445.53;;;8.98;nan
37694;BME280;23531;50.122;8.644;2023-04-07T07:09:57;100443.25;;;8.95;nan
37694;BME280;23531;50.122;8.644;2023-04-07T07:12:00;100442.66;;;8.99;nan
37694;BME280;23531;50.122;8.644;2023-04-07T07:14:02;100447.47;;;9.10;nan
37694;BME280;23531;50.122;8.644;2023-04-07T07:16:03;100446.81;;;9.02;nan
37694;BME280;23531;50.122;8.644;2023-04-07T07:18:05;100451.22;;;8.82;nan
37694;BME280;23531;50.122;8.644;2023-04-07T07:20:06;100451.03;;;8.83;nan
37694;BME280;23531;50.122;8.644;2023-04-07T07:22:08;100447.56;;;8.89;nan
37694;BME280;23531;50.122;8.644;2023-04-07T07:24:09;100448.81;;;8.93;nan
37694;BME280;23531;50.122;8.644;2023-04-07T07:26:10;100452.59;;;9.05;nan
37694;BME280;23531;50.122;8.644;2023-04-07T07:28:13;100456.47;;;8.96;nan
37694;BME280;23531;50.122;8.644;2023-04-07T07:30:15;100449.25;;;9.03;nan
37694;BME280;23531;50.122;8.644;2023-04-07T07:32:16;100452.00;;;9.10;nan
37694;BME280;23531;50.122;8.644;2023-04-07T07:34:17;100453.97;;;8.95;nan
37694;BME280;23531;50.122;8.644;2023-04-07T07:36:19;100455.25;;;9.05;nan
37694;BME280;23531;50.122;8.644;2023-04-07T07:38:20;100454.03;;;9.01;nan
37694;BME280;23531;50.122;8.644;2023-04-07T07:40:21;100453.59;;;9.04;nan
37694;BME280;23531;50.122;8.644;2023-04-07T07:42:22;100453.84;;;9.09;nan
37694;BME280;23531;50.122;8.644;2023-04-07T07:44:25;100451.38;;;9.08;nan
37694;BME280;23531;50.122;8.644;2023-04-07T07:46:26;100458.94;;;8.98;nan
37694;BME280;23531;50.122;8.644;2023-04-07T07:48:27;100459.59;;;9.06;nan
37694;BME280;23531;50.122;8.644;2023-04-07T07:50:29;100460.69;;;9.12;nan
37694;BME280;23531;50.122;8.644;2023-04-07T07:52:30;100464.78;;;9.15;nan
37694;BME280;23531;50.122;8.644;2023-04-07T07:54:31;100462.75;;;9.17;nan
37694;BME280;23531;50.122;8.644;2023-04-07T07:56:32;100465.03;;;9.20;nan
37694;BME280;23531;50.122;8.644;2023-04-07T07:58:35;100472.69;;;9.23;nan
37694;BME280;23531;50.122;8.644;2023-04-07T08:00:38;100475.44;;;9.42;nan
37694;BME280;23531;50.122;8.644;2023-04-07T08:02:39;100471.75;;;9.50;nan
37694;BME280;23531;50.122;8.644;2023-04-07T08:04:40;100473.19;;;9.53;nan
37694;BME280;23531;50.122;8.644;2023-04-07T08:06:42;100469.88;;;9.44;nan
37694;BME280;23531;50.122;8.644;2023-04-07T08:08:43;100471.09;;;9.48;nan
37694;BME280;23531;50.122;8.644;2023-04-07T08:10:44;100478.56;;;9.53;nan
37694;BME280;23531;50.122;8.644;2023-04-07T08:12:46;100475.94;;;9.59;nan
37694;BME280;23531;50.122;8.644;2023-04-07T08:14:47;100484.78;;;9.60;nan
37694;BME280;23531;50.122;8.644;2023-04-07T08:16:50;100476.97;;;9.71;nan
37694;BME280;23531;50.122;8.644;2023-04-07T08:18:51;100491.84;;;9.67;nan
37694;BME280;23531;50.122;8.644;2023-04-07T08:20:52;100486.69;;;9.72;nan
37694;BME280;23531;50.122;8.644;2023-04-07T08:22:54;100486.47;;;9.67;nan
37694;BME280;23531;50.122;8.644;2023-04-07T08:24:55;100491.66;;;9.75;nan
37694;BME280;23531;50.122;8.644;2023-04-07T08:26:57;100489.34;;;9.72;nan
37694;BME280;23531;50.122;8.644;2023-04-07T08:28:58;100486.66;;;9.66;nan
37694;BME280;23531;50.122;8.644;2023-04-07T08:30:59;100486.06;;;9.70;nan
37694;BME280;23531;50.122;8.644;2023-04-07T08:33:02;100492.69;;;9.74;nan
37694;BME280;23531;50.122;8.644;2023-04-07T08:35:04;100496.00;;;9.76;nan
37694;BME280;23531;50.122;8.644;2023-04-07T08:37:05;100493.94;;;9.85;nan
37694;BME280;23531;50.122;8.644;2023-04-07T08:39:08;100492.31;;;9.91;nan
37694;BME280;23531;50.122;8.644;2023-04-07T08:41:10;100495.00;;;9.91;nan
37694;BME280;23531;50.122;8.644;2023-04-07T08:43:12;100490.03;;;9.88;nan
37694;BME280;23531;50.122;8.644;2023-04-07T08:45:15;100484.88;;;9.93;nan
37694;BME280;23531;50.122;8.644;2023-04-07T08:47:16;100496.84;;;9.90;nan
37694;BME280;23531;50.122;8.644;2023-04-07T08:49:19;100498.44;;;9.71;nan
37694;BME280;23531;50.122;8.644;2023-04-07T08:51:24;100493.94;;;9.85;nan
37694;BME280;23531;50.122;8.644;2023-04-07T08:53:27;100494.38;;;9.89;nan
37694;BME280;23531;50.122;8.644;2023-04-07T08:55:32;100494.78;;;9.99;nan
37694;BME280;23531;50.122;8.644;2023-04-07T08:57:35;100497.72;;;10.04;nan
37694;BME280;23531;50.122;8.644;2023-04-07T08:59:36;100496.44;;;10.00;nan
37694;BME280;23531;50.122;8.644;2023-04-07T09:01:42;100504.13;;;10.03;nan
37694;BME280;23531;50.122;8.644;2023-04-07T09:03:43;100501.81;;;10.00;nan
37694;BME280;23531;50.122;8.644;2023-04-07T09:05:46;100498.50;;;9.98;nan
37694;BME280;23531;50.122;8.644;2023-04-07T09:07:47;100500.59;;;10.02;nan
37694;BME280;23531;50.122;8.644;2023-04-07T09:09:48;100503.09;;;10.04;nan
37694;BME280;23531;50.122;8.644;2023-04-07T09:11:50;100499.34;;;10.05;nan
37694;BME280;23531;50.122;8.644;2023-04-07T09:13:51;100502.66;;;10.07;nan
37694;BME280;23531;50.122;8.644;2023-04-07T09:15:53;100507.00;;;10.01;nan
37694;BME280;23531;50.122;8.644;2023-04-07T09:17:55;100509.88;;;10.06;nan
37694;BME280;23531;50.122;8.644;2023-04-07T09:19:57;100509.88;;;10.06;nan
37694;BME280;23531;50.122;8.644;2023-04-07T09:22:00;100507.63;;;10.03;nan
37694;BME280;23531;50.122;8.644;2023-04-07T09:24:02;100515.91;;;10.15;nan
37694;BME280;23531;50.122;8.644;2023-04-07T09:26:21;100511.53;;;10.07;nan
37694;BME280;23531;50.122;8.644;2023-04-07T09:28:23;100512.78;;;10.11;nan
37694;BME280;23531;50.122;8.644;2023-04-07T09:30:24;100513.81;;;10.04;nan
37694;BME280;23531;50.122;8.644;2023-04-07T09:32:33;100516.09;;;10.07;nan
37694;BME280;23531;50.122;8.644;2023-04-07T09:34:36;100517.34;;;10.04;nan
37694;BME280;23531;50.122;8.644;2023-04-07T09:36:40;100508.44;;;10.17;nan
37694;BME280;23531;50.122;8.644;2023-04-07T09:38:43;100511.97;;;10.17;nan
37694;BME280;23531;50.122;8.644;2023-04-07T09:40:45;100507.22;;;10.13;nan
37694;BME280;23531;50.122;8.644;2023-04-07T09:42:47;100513.78;;;9.91;nan
37694;BME280;23531;50.122;8.644;2023-04-07T09:44:48;100516.22;;;9.72;nan
37694;BME280;23531;50.122;8.644;2023-04-07T09:46:50;100508.78;;;9.68;nan
37694;BME280;23531;50.122;8.644;2023-04-07T09:49:00;100514.38;;;9.86;nan
37694;BME280;23531;50.122;8.644;2023-04-07T09:51:05;100512.94;;;9.83;nan
37694;BME280;23531;50.122;8.644;2023-04-07T09:53:07;100517.28;;;9.84;nan
37694;BME280;23531;50.122;8.644;2023-04-07T09:55:09;100517.47;;;9.76;nan
37694;BME280;23531;50.122;8.644;2023-04-07T09:57:11;100525.22;;;9.52;nan
37694;BME280;23531;50.122;8.644;2023-04-07T09:59:12;100520.25;;;9.48;nan
37694;BME280;23531;50.122;8.644;2023-04-07T10:01:14;100519.66;;;9.53;nan
37694;BME280;23531;50.122;8.644;2023-04-07T10:03:16;100517.44;;;9.63;nan
37694;BME280;23531;50.122;8.644;2023-04-07T10:05:18;100517.72;;;9.81;nan
37694;BME280;23531;50.122;8.644;2023-04-07T10:07:22;100516.88;;;9.94;nan
37694;BME280;23531;50.122;8.644;2023-04-07T10:09:24;100517.31;;;9.98;nan
37694;BME280;23531;50.122;8.644;2023-04-07T10:11:27;100519.97;;;9.84;nan
37694;BME280;23531;50.122;8.644;2023-04-07T10:13:29;100518.28;;;9.70;nan
37694;BME280;23531;50.122;8.644;2023-04-07T10:15:30;100524.50;;;9.84;nan
37694;BME280;23531;50.122;8.644;2023-04-07T10:17:32;100526.16;;;9.78;nan
37694;BME280;23531;50.122;8.644;2023-04-07T10:19:33;100523.44;;;9.65;nan
37694;BME280;23531;50.122;8.644;2023-04-07T10:21:36;100526.50;;;9.56;nan
37694;BME280;23531;50.122;8.644;2023-04-07T10:23:42;100529.63;;;9.66;nan
37694;BME280;23531;50.122;8.644;2023-04-07T10:25:48;100525.53;;;9.70;nan
37694;BME280;23531;50.122;8.644;2023-04-07T10:27:53;100529.44;;;9.67;nan
37694;BME280;23531;50.122;8.644;2023-04-07T10:29:56;100532.69;;;9.63;nan
37694;BME280;23531;50.122;8.644;2023-04-07T10:31:58;100529.38;;;9.54;nan
37694;BME280;23531;50.122;8.644;2023-04-07T10:34:01;100536.41;;;9.55;nan
37694;BME280;23531;50.122;8.644;2023-04-07T10:36:03;100533.09;;;9.60;nan
37694;BME280;23531;50.122;8.644;2023-04-07T10:38:11;100536.03;;;9.71;nan
37694;BME280;23531;50.122;8.644;2023-04-07T10:40:26;100536.06;;;9.78;nan
37694;BME280;23531;50.122;8.644;2023-04-07T10:42:43;100535.88;;;9.79;nan
37694;BME280;23531;50.122;8.644;2023-04-07T10:44:46;100541.88;;;9.81;nan
37694;BME280;23531;50.122;8.644;2023-04-07T10:47:01;100539.81;;;9.90;nan
37694;BME280;23531;50.122;8.644;2023-04-07T10:49:08;100544.31;;;9.76;nan
37694;BME280;23531;50.122;8.644;2023-04-07T10:51:10;100544.66;;;9.60;nan
37694;BME280;23531;50.122;8.644;2023-04-07T10:53:14;100547.59;;;9.65;nan
37694;BME280;23531;50.122;8.644;2023-04-07T10:55:30;100555.06;;;9.76;nan
37694;BME280;23531;50.122;8.644;2023-04-07T10:57:31;100556.13;;;9.89;nan
37694;BME280;23531;50.122;8.644;2023-04-07T10:59:33;100555.94;;;9.97;nan
37694;BME280;23531;50.122;8.644;2023-04-07T11:01:35;100553.91;;;10.05;nan
37694;BME280;23531;50.122;8.644;2023-04-07T11:03:37;100559.25;;;10.05;nan
37694;BME280;23531;50.122;8.644;2023-04-07T11:05:39;100560.53;;;10.03;nan
37694;BME280;23531;50.122;8.644;2023-04-07T11:07:45;100558.88;;;10.08;nan
37694;BME280;23531;50.122;8.644;2023-04-07T11:09:47;100558.38;;;9.85;nan
37694;BME280;23531;50.122;8.644;2023-04-07T11:11:49;100556.78;;;9.91;nan
37694;BME280;23531;50.122;8.644;2023-04-07T11:13:51;100555.16;;;10.03;nan
37694;BME280;23531;50.122;8.644;2023-04-07T11:15:52;100551.00;;;10.07;nan
37694;BME280;23531;50.122;8.644;2023-04-07T11:18:07;100556.41;;;10.13;nan
37694;BME280;23531;50.122;8.644;2023-04-07T11:20:09;100553.13;;;10.18;nan
37694;BME280;23531;50.122;8.644;2023-04-07T11:22:14;100555.97;;;10.16;nan
37694;BME280;23531;50.122;8.644;2023-04-07T11:24:30;100563.44;;;10.14;nan
37694;BME280;23531;50.122;8.644;2023-04-07T11:26:38;100562.16;;;9.97;nan
37694;BME280;23531;50.122;8.644;2023-04-07T11:28:43;100560.25;;;9.78;nan
37694;BME280;23531;50.122;8.644;2023-04-07T11:30:46;100556.97;;;9.96;nan
37694;BME280;23531;50.122;8.644;2023-04-07T11:32:48;100563.66;;;10.13;nan
37694;BME280;23531;50.122;8.644;2023-04-07T11:34:52;100563.44;;;10.14;nan
37694;BME280;23531;50.122;8.644;2023-04-07T11:36:53;100561.78;;;10.13;nan
37694;BME280;23531;50.122;8.644;2023-04-07T11:38:58;100561.59;;;10.15;nan
37694;BME280;23531;50.122;8.644;2023-04-07T11:41:08;100561.34;;;10.16;nan
37694;BME280;23531;50.122;8.644;2023-04-07T11:43:16;100569.22;;;10.11;nan
37694;BME280;23531;50.122;8.644;2023-04-07T11:45:18;100569.69;;;10.22;nan
37694;BME280;23531;50.122;8.644;2023-04-07T11:47:19;100563.06;;;10.24;nan
37694;BME280;23531;50.122;8.644;2023-04-07T11:49:21;100569.91;;;10.33;nan
37694;BME280;23531;50.122;8.644;2023-04-07T11:51:25;100570.97;;;10.45;nan
37694;BME280;23531;50.122;8.644;2023-04-07T11:53:27;100576.72;;;10.42;nan
37694;BME280;23531;50.122;8.644;2023-04-07T11:55:29;100574.06;;;10.36;nan
37694;BME280;23531;50.122;8.644;2023-04-07T11:57:30;100584.78;;;10.29;nan
37694;BME280;23531;50.122;8.644;2023-04-07T11:59:31;100580.63;;;10.20;nan
37694;BME280;23531;50.122;8.644;2023-04-07T12:01:39;100578.16;;;10.25;nan
37694;BME280;23531;50.122;8.644;2023-04-07T12:03:53;100588.72;;;10.40;nan
37694;BME280;23531;50.122;8.644;2023-04-07T12:05:56;100576.72;;;10.42;nan
37694;BME280;23531;50.122;8.644;2023-04-07T12:07:58;100581.09;;;10.43;nan
37694;BME280;23531;50.122;8.644;2023-04-07T12:12:23;100575.19;;;10.00;nan
37694;BME280;23531;50.122;8.644;2023-04-07T12:14:25;100584.84;;;9.81;nan
37694;BME280;23531;50.122;8.644;2023-04-07T12:16:27;100590.28;;;10.01;nan
37694;BME280;23531;50.122;8.644;2023-04-07T12:18:29;100594.44;;;10.17;nan
37694;BME280;23531;50.122;8.644;2023-04-07T12:20:30;100590.28;;;10.01;nan
37694;BME280;23531;50.122;8.644;2023-04-07T12:22:31;100595.59;;;9.95;nan
37694;BME280;23531;50.122;8.644;2023-04-07T12:24:34;100598.88;;;9.83;nan
37694;BME280;23531;50.122;8.644;2023-04-07T12:26:35;100597.84;;;9.84;nan
37694;BME280;23531;50.122;8.644;2023-04-07T12:28:37;100592.25;;;9.79;nan
37694;BME280;23531;50.122;8.644;2023-04-07T12:30:39;100596.03;;;9.98;nan
37694;BME280;23531;50.122;8.644;2023-04-07T12:32:41;100599.16;;;10.08;nan
37694;BME280;23531;50.122;8.644;2023-04-07T12:34:42;100604.06;;;9.85;nan
37694;BME280;23531;50.122;8.644;2023-04-07T12:36:43;100598.88;;;9.83;nan
37694;BME280;23531;50.122;8.644;2023-04-07T12:38:45;100596.81;;;9.86;nan
37694;BME280;23531;50.122;8.644;2023-04-07T12:40:47;100600.72;;;9.83;nan
37694;BME280;23531;50.122;8.644;2023-04-07T12:42:48;100598.88;;;9.83;nan
37694;BME280;23531;50.122;8.644;2023-04-07T12:44:50;100604.31;;;9.97;nan
37694;BME280;23531;50.122;8.644;2023-04-07T12:46:52;100602.31;;;10.18;nan
37694;BME280;23531;50.122;8.644;2023-04-07T12:48:54;100609.19;;;10.34;nan
37694;BME280;23531;50.122;8.644;2023-04-07T12:50:56;100601.56;;;10.38;nan
37694;BME280;23531;50.122;8.644;2023-04-07T12:52:57;100603.84;;;10.47;nan
37694;BME280;23531;50.122;8.644;2023-04-07T12:55:00;100603.66;;;10.69;nan
37694;BME280;23531;50.122;8.644;2023-04-07T12:57:03;100607.78;;;10.78;nan
37694;BME280;23531;50.122;8.644;2023-04-07T12:59:04;100594.75;;;10.75;nan
37694;BME280;23531;50.122;8.644;2023-04-07T13:01:05;100606.16;;;10.83;nan
37694;BME280;23531;50.122;8.644;2023-04-07T13:03:07;100598.69;;;11.05;nan
37694;BME280;23531;50.122;8.644;2023-04-07T13:05:08;100600.13;;;11.14;nan
37694;BME280;23531;50.122;8.644;2023-04-07T13:07:10;100601.31;;;11.18;nan
37694;BME280;23531;50.122;8.644;2023-04-07T13:09:11;100599.72;;;11.04;nan